createdAt,value
2022-10-17T00:02:07.901Z,23.45
2022-10-17T00:07:12.916Z,23.88
2022-10-17T00:09:43.362Z,22.55
2022-10-17T00:12:16.964Z,22.98
2022-10-17T00:14:44.286Z,23.67
2022-10-17T00:17:17.941Z,23.17
2022-10-17T00:19:44.831Z,22.40
2022-10-17T00:22:18.959Z,22.70
2022-10-17T00:24:46.397Z,22.73
2022-10-17T00:27:26.346Z,21.88
2022-10-17T00:29:53.424Z,22.50
2022-10-17T00:32:20.537Z,22.00
2022-10-17T00:34:53.922Z,21.20
2022-10-17T00:37:20.778Z,20.48
2022-10-17T00:39:47.651Z,20.52
2022-10-17T00:42:20.969Z,23.10
2022-10-17T00:44:53.942Z,22.02
2022-10-17T00:47:21.427Z,21.58
2022-10-17T00:49:55.049Z,23.02
2022-10-17T00:52:31.325Z,21.55
2022-10-17T00:55:09.257Z,21.58
2022-10-17T00:57:42.969Z,22.73
2022-10-17T01:00:10.862Z,21.90
2022-10-17T01:02:37.840Z,22.63
2022-10-17T01:05:11.975Z,22.83
2022-10-17T01:07:39.771Z,22.92
2022-10-17T01:10:14.011Z,22.08
2022-10-17T01:13:04.019Z,22.20
2022-10-17T01:15:42.641Z,20.40
2022-10-17T01:18:52.994Z,20.63
2022-10-17T01:21:48.992Z,21.67
2022-10-17T01:24:24.529Z,21.85
2022-10-17T01:27:09.981Z,21.10
2022-10-17T01:30:07.966Z,21.63
2022-10-17T01:32:40.444Z,20.52
2022-10-17T01:35:21.002Z,22.58
2022-10-17T01:38:01.698Z,21.83
2022-10-17T01:40:52.970Z,21.73
2022-10-17T01:43:31.549Z,22.65
2022-10-17T01:46:21.964Z,22.58
2022-10-17T01:48:48.881Z,21.35
2022-10-17T01:51:27.016Z,21.98
2022-10-17T01:54:00.056Z,22.13
2022-10-17T01:56:34.021Z,21.17
2022-10-17T01:59:45.995Z,20.88
2022-10-17T02:02:19.021Z,21.45
2022-10-17T02:04:46.109Z,21.95
2022-10-17T02:07:19.999Z,22.17
2022-10-17T02:09:52.991Z,21.58
2022-10-17T02:13:03.002Z,21.27
2022-10-17T02:15:46.982Z,25.73
2022-10-17T02:18:23.494Z,25.92
2022-10-17T02:21:01.041Z,25.15
2022-10-17T02:23:32.426Z,25.50
2022-10-17T02:26:19.051Z,25.73
2022-10-17T02:29:24.231Z,24.98
2022-10-17T02:32:35.022Z,25.05
2022-10-17T02:35:02.970Z,25.27
2022-10-17T02:37:37.016Z,24.10
2022-10-17T02:40:04.343Z,23.50
2022-10-17T02:42:31.491Z,24.38
2022-10-17T02:45:07.036Z,24.02
2022-10-17T02:47:44.999Z,23.45
2022-10-17T02:50:11.873Z,23.35
2022-10-17T02:53:10.074Z,22.55
2022-10-17T02:55:41.228Z,23.23
2022-10-17T02:58:20.056Z,23.92
2022-10-17T03:00:46.936Z,23.42
2022-10-17T03:03:28.028Z,22.63
2022-10-17T03:05:55.014Z,22.90
2022-10-17T03:08:22.109Z,23.77
2022-10-17T03:10:55.034Z,24.27
2022-10-17T03:13:21.878Z,24.83
2022-10-17T03:15:55.040Z,22.75
2022-10-17T03:18:21.887Z,24.70
2022-10-17T03:20:55.050Z,24.30
2022-10-17T03:23:21.879Z,23.50
2022-10-17T03:25:48.726Z,22.42
2022-10-17T03:28:22.082Z,23.48
2022-10-17T03:30:55.061Z,23.40
2022-10-17T03:33:21.948Z,24.05
2022-10-17T03:35:55.069Z,20.42
2022-10-17T03:38:28.062Z,21.52
2022-10-17T03:40:55.875Z,20.95
2022-10-17T03:43:29.048Z,20.50
2022-10-17T03:45:57.315Z,21.42
2022-10-17T03:48:24.455Z,19.52
2022-10-17T03:50:58.095Z,21.23
2022-10-17T03:53:24.945Z,19.90
2022-10-17T03:55:58.076Z,21.08
2022-10-17T03:58:24.938Z,20.42
2022-10-17T04:00:58.068Z,19.95
2022-10-17T04:03:24.967Z,20.42
2022-10-17T04:05:51.812Z,19.20
2022-10-17T04:08:25.056Z,20.33
2022-10-17T04:10:51.902Z,20.17
2022-10-17T04:13:25.078Z,20.58
2022-10-17T04:16:06.867Z,19.20
2022-10-17T04:18:40.121Z,19.10
2022-10-17T04:21:07.130Z,20.17
2022-10-17T04:23:34.263Z,19.63
2022-10-17T04:26:08.102Z,19.80
2022-10-17T04:28:35.852Z,20.00
2022-10-17T04:31:14.142Z,19.60
2022-10-17T04:33:48.098Z,18.73
2022-10-17T04:36:17.692Z,18.75
2022-10-17T04:38:51.123Z,17.65
2022-10-17T04:41:25.103Z,17.95
2022-10-17T04:43:52.078Z,17.45
2022-10-17T04:46:25.172Z,18.20
2022-10-17T04:48:58.094Z,17.08
2022-10-17T04:51:26.617Z,18.30
2022-10-17T04:54:00.099Z,16.60
2022-10-17T04:56:26.972Z,16.60
2022-10-17T04:59:00.250Z,17.92
2022-10-17T05:01:27.305Z,17.35
2022-10-17T05:04:01.121Z,16.65
2022-10-17T05:06:34.120Z,16.90
2022-10-17T05:09:00.956Z,18.48
2022-10-17T05:11:35.136Z,17.77
2022-10-17T05:14:02.232Z,18.13
2022-10-17T05:16:36.245Z,19.08
2022-10-17T05:19:03.244Z,19.48
2022-10-17T05:21:30.366Z,17.98
2022-10-17T05:24:04.171Z,18.63
2022-10-17T05:26:31.030Z,19.08
2022-10-17T05:28:57.942Z,18.90
2022-10-17T05:31:31.169Z,18.58
2022-10-17T05:34:04.222Z,18.10
2022-10-17T05:36:37.138Z,19.67
2022-10-17T05:39:04.116Z,18.25
2022-10-17T05:41:37.175Z,17.52
2022-10-17T05:44:05.640Z,18.85
2022-10-17T05:46:39.161Z,19.15
2022-10-17T05:49:15.103Z,18.70
2022-10-17T05:51:59.135Z,17.83
2022-10-17T05:54:26.220Z,16.42
2022-10-17T05:57:00.126Z,18.17
2022-10-17T05:59:27.480Z,19.38
2022-10-17T06:02:01.231Z,17.08
2022-10-17T06:04:28.141Z,17.80
2022-10-17T06:07:01.169Z,17.33
2022-10-17T06:09:28.364Z,17.70
2022-10-17T06:12:02.150Z,16.58
2022-10-17T06:14:29.020Z,16.65
2022-10-17T06:17:02.201Z,16.98
2022-10-17T06:19:29.074Z,18.48
2022-10-17T06:22:02.203Z,17.15
2022-10-17T06:24:29.178Z,16.65
2022-10-17T06:27:11.815Z,18.20
2022-10-17T06:29:46.211Z,16.75
2022-10-17T06:32:15.101Z,15.75
2022-10-17T06:34:49.255Z,15.68
2022-10-17T06:37:16.199Z,16.42
2022-10-17T06:39:50.403Z,17.33
2022-10-17T06:42:19.602Z,15.82
2022-10-17T06:44:59.325Z,16.10
2022-10-17T06:47:26.237Z,16.02
2022-10-17T06:49:59.180Z,15.32
2022-10-17T06:52:26.039Z,17.60
2022-10-17T06:54:52.940Z,15.90
2022-10-17T06:57:26.320Z,16.17
2022-10-17T06:59:53.432Z,15.27
2022-10-17T07:02:27.413Z,17.42
2022-10-17T07:04:54.585Z,16.95
2022-10-17T07:07:28.586Z,15.85
2022-10-17T07:09:55.608Z,18.15
2022-10-17T07:12:22.453Z,16.02
2022-10-17T07:14:56.185Z,15.80
2022-10-17T07:17:29.331Z,15.70
2022-10-17T07:19:56.428Z,16.60
2022-10-17T07:22:30.177Z,16.90
2022-10-17T07:25:03.181Z,17.83
2022-10-17T07:27:36.230Z,17.67
2022-10-17T07:30:09.293Z,16.75
2022-10-17T07:32:36.324Z,18.48
2022-10-17T07:35:10.327Z,16.52
2022-10-17T07:37:37.459Z,18.52
2022-10-17T07:40:12.209Z,17.38
2022-10-17T07:45:13.267Z,18.13
2022-10-17T07:47:40.098Z,18.75
2022-10-17T07:50:07.647Z,17.92
2022-10-17T07:52:41.239Z,17.38
2022-10-17T07:55:09.130Z,18.30
2022-10-17T07:57:42.215Z,18.50
2022-10-17T08:00:16.257Z,19.55
2022-10-17T08:02:49.269Z,19.27
2022-10-17T08:05:23.307Z,18.70
2022-10-17T08:07:50.160Z,18.35
2022-10-17T08:10:17.083Z,19.27
2022-10-17T08:12:50.263Z,19.90
2022-10-17T08:15:25.671Z,20.42
2022-10-17T08:17:53.647Z,20.20
2022-10-17T08:20:27.239Z,21.55
2022-10-17T08:22:54.861Z,20.00
2022-10-17T08:25:21.883Z,18.95
2022-10-17T08:27:55.274Z,18.95
2022-10-17T08:30:22.133Z,16.75
2022-10-17T08:32:55.243Z,18.63
2022-10-17T08:35:22.210Z,18.85
2022-10-17T08:37:55.260Z,18.63
2022-10-17T08:40:28.277Z,18.75
2022-10-17T08:43:53.273Z,19.27
2022-10-17T08:46:20.317Z,20.90
2022-10-17T08:48:47.924Z,21.90
2022-10-17T08:51:35.296Z,23.05
2022-10-17T08:54:21.257Z,26.45
2022-10-17T08:56:53.494Z,26.38
2022-10-17T08:59:36.564Z,24.58
2022-10-17T09:02:25.892Z,25.63
2022-10-17T09:05:41.261Z,24.00
2022-10-17T09:08:41.265Z,25.58
2022-10-17T09:11:50.300Z,23.98
2022-10-17T09:14:22.783Z,21.83
2022-10-17T09:17:48.342Z,21.67
2022-10-17T09:20:21.499Z,20.13
2022-10-17T09:23:10.315Z,24.90
2022-10-17T09:25:49.786Z,25.77
2022-10-17T09:28:45.362Z,22.17
2022-10-17T09:31:30.264Z,25.13
2022-10-17T09:33:57.889Z,22.05
2022-10-17T09:36:38.292Z,26.48
2022-10-17T09:39:23.303Z,24.85
2022-10-17T09:42:01.323Z,24.83
2022-10-17T09:44:31.269Z,23.90
2022-10-17T09:47:16.356Z,23.70
2022-10-17T09:49:46.044Z,26.90
2022-10-17T09:52:31.630Z,26.40
2022-10-17T09:55:08.361Z,25.30
2022-10-17T09:57:54.367Z,24.08
2022-10-17T10:00:42.380Z,25.42
2022-10-17T10:03:18.114Z,25.67
2022-10-17T10:06:27.318Z,22.77
2022-10-17T10:08:56.037Z,22.80
2022-10-17T10:11:52.339Z,24.10
2022-10-17T10:14:45.176Z,24.52
2022-10-17T10:17:45.417Z,24.13
2022-10-17T10:20:35.133Z,22.52
2022-10-17T10:23:25.366Z,23.70
2022-10-17T10:26:12.358Z,22.83
2022-10-17T10:28:39.394Z,22.10
2022-10-17T10:31:14.397Z,23.40
2022-10-17T10:33:44.177Z,24.42
2022-10-17T10:36:20.357Z,23.55
2022-10-17T10:39:02.520Z,21.95
2022-10-17T10:41:31.617Z,22.08
2022-10-17T10:44:05.414Z,22.05
2022-10-17T10:46:39.456Z,25.42
2022-10-17T10:49:32.430Z,22.83
2022-10-17T10:52:06.377Z,28.08
2022-10-17T10:57:13.417Z,26.65
2022-10-17T10:59:46.817Z,26.55
2022-10-17T11:02:44.407Z,23.23
2022-10-17T11:05:22.315Z,25.63
2022-10-17T11:08:25.357Z,28.02
2022-10-17T11:11:32.761Z,26.77
2022-10-17T11:14:14.426Z,27.42
2022-10-17T11:17:27.343Z,28.20
2022-10-17T11:20:15.373Z,25.88
2022-10-17T11:22:48.528Z,27.55
2022-10-17T11:25:40.727Z,28.88
2022-10-17T11:28:19.147Z,24.92
2022-10-17T11:31:07.128Z,27.20
2022-10-17T11:33:50.036Z,26.20
2022-10-17T11:36:32.369Z,29.17
2022-10-17T11:39:20.792Z,26.63
2022-10-17T11:42:27.503Z,31.23
2022-10-17T11:45:02.852Z,28.25
2022-10-17T11:47:55.377Z,29.52
2022-10-17T11:53:27.420Z,30.55
2022-10-17T11:55:54.467Z,26.92
2022-10-17T11:58:34.414Z,34.30
2022-10-17T12:01:26.432Z,27.52
2022-10-17T12:04:53.422Z,25.38
2022-10-17T12:07:48.454Z,26.88
2022-10-17T12:10:55.414Z,28.83
2022-10-17T12:13:28.129Z,27.17
2022-10-17T12:16:02.403Z,27.58
2022-10-17T12:18:29.322Z,29.80
2022-10-17T12:21:06.395Z,28.50
2022-10-17T12:23:40.306Z,30.25
2022-10-17T12:26:16.422Z,28.02
2022-10-17T12:28:50.095Z,27.88
2022-10-17T12:31:23.471Z,27.38
2022-10-17T12:34:03.054Z,29.10
2022-10-17T12:36:36.486Z,27.02
2022-10-17T12:39:09.492Z,32.17
2022-10-17T12:41:45.432Z,27.33
2022-10-17T12:44:15.306Z,29.92
2022-10-17T12:46:56.464Z,28.98
2022-10-17T12:49:49.703Z,27.67
2022-10-17T12:52:30.470Z,26.00
2022-10-17T12:55:13.014Z,27.38
2022-10-17T12:58:01.485Z,28.90
2022-10-17T13:01:19.157Z,34.63
2022-10-17T13:03:44.562Z,29.05
2022-10-17T13:06:27.464Z,32.90
2022-10-17T13:09:04.266Z,29.52
2022-10-17T13:11:40.504Z,37.42
2022-10-17T13:14:14.725Z,35.90
2022-10-17T13:17:04.507Z,32.70
2022-10-17T13:19:51.622Z,34.70
2022-10-17T13:22:33.550Z,29.42
2022-10-17T13:25:17.027Z,27.50
2022-10-17T13:27:50.441Z,30.35
2022-10-17T13:30:30.881Z,34.63
2022-10-17T13:33:06.483Z,29.40
2022-10-17T13:35:59.407Z,27.92
2022-10-17T13:38:34.911Z,27.70
2022-10-17T13:41:30.164Z,29.45
2022-10-17T13:43:57.504Z,33.67
2022-10-17T13:46:38.865Z,29.35
2022-10-17T13:49:50.494Z,24.67
2022-10-17T13:52:22.467Z,25.92
2022-10-17T13:54:57.487Z,25.88
2022-10-17T13:57:29.123Z,26.33
2022-10-17T14:00:11.402Z,28.10
2022-10-17T14:02:40.197Z,28.23
2022-10-17T14:05:21.524Z,27.15
2022-10-17T14:08:11.842Z,26.00
2022-10-17T14:10:47.532Z,27.67
2022-10-17T14:13:28.912Z,27.25
2022-10-17T14:16:08.530Z,29.42
2022-10-17T14:18:42.540Z,25.63
2022-10-17T14:24:41.516Z,25.92
2022-10-17T14:27:35.617Z,48.17
2022-10-17T14:30:14.591Z,33.60
2022-10-17T14:32:42.768Z,28.77
2022-10-17T14:35:41.009Z,31.02
2022-10-17T14:38:08.682Z,29.85
2022-10-17T14:40:42.573Z,24.48
2022-10-17T14:43:15.184Z,29.13
2022-10-17T14:45:48.596Z,23.80
2022-10-17T14:48:22.160Z,25.60
2022-10-17T14:51:20.534Z,24.27
2022-10-17T14:54:27.049Z,25.40
2022-10-17T14:57:00.544Z,25.83
2022-10-17T14:59:53.247Z,26.40
2022-10-17T15:02:20.481Z,26.05
2022-10-17T15:04:53.530Z,24.40
2022-10-17T15:07:27.549Z,26.40
2022-10-17T15:09:54.461Z,28.25
2022-10-17T15:12:23.250Z,27.48
2022-10-17T15:14:56.537Z,25.45
2022-10-17T15:17:32.320Z,26.23
2022-10-17T15:20:05.596Z,27.77
2022-10-17T15:22:32.951Z,25.17
2022-10-17T15:25:06.562Z,25.95
2022-10-17T15:27:33.677Z,26.77
2022-10-17T15:30:06.606Z,27.67
2022-10-17T15:32:39.569Z,28.50
2022-10-17T15:35:13.920Z,27.95
2022-10-17T15:37:40.848Z,28.90
2022-10-17T15:40:20.591Z,26.80
2022-10-17T15:42:47.514Z,28.25
2022-10-17T15:45:16.249Z,28.58
2022-10-17T15:47:55.694Z,30.42
2022-10-17T15:50:23.143Z,28.67
2022-10-17T15:52:56.604Z,30.83
2022-10-17T15:55:23.712Z,29.52
2022-10-17T15:58:00.597Z,30.80
2022-10-17T16:00:27.854Z,27.80
2022-10-17T16:03:01.615Z,28.58
2022-10-17T16:05:34.621Z,28.90
2022-10-17T16:08:01.495Z,31.00
2022-10-17T16:10:34.590Z,29.65
2022-10-17T16:13:01.764Z,29.65
2022-10-17T16:15:29.067Z,29.65
2022-10-17T16:18:06.614Z,27.30
2022-10-17T16:20:38.047Z,26.40
2022-10-17T16:23:11.662Z,26.23
2022-10-17T16:25:38.543Z,26.55
2022-10-17T16:28:05.449Z,26.95
2022-10-17T16:30:38.607Z,25.88
2022-10-17T16:33:05.517Z,26.67
2022-10-17T16:35:38.582Z,26.52
2022-10-17T16:38:07.170Z,26.92
2022-10-17T16:40:40.690Z,25.88
2022-10-17T16:43:10.956Z,27.88
2022-10-17T16:45:44.614Z,28.08
2022-10-17T16:48:11.567Z,28.45
2022-10-17T16:50:47.623Z,26.83
2022-10-17T16:53:14.603Z,26.20
2022-10-17T16:55:47.616Z,25.33
2022-10-17T16:58:14.507Z,25.05
2022-10-17T17:00:41.547Z,25.95
2022-10-17T17:03:14.649Z,27.60
2022-10-17T17:05:47.638Z,27.65
2022-10-17T17:08:14.602Z,27.20
2022-10-17T17:10:45.894Z,27.52
2022-10-17T17:13:19.652Z,28.55
2022-10-17T17:15:46.560Z,28.73
2022-10-17T17:18:19.689Z,35.42
2022-10-17T17:20:47.102Z,33.25
2022-10-17T17:23:21.672Z,32.20
2022-10-17T17:25:48.618Z,32.55
2022-10-17T17:28:21.707Z,30.85
2022-10-17T17:30:48.710Z,28.58
2022-10-17T17:33:21.645Z,30.23
2022-10-17T17:35:48.664Z,32.97
2022-10-17T17:38:15.555Z,38.38
2022-10-17T17:40:53.663Z,35.47
2022-10-17T17:43:27.658Z,31.58
2022-10-17T17:45:54.580Z,29.73
2022-10-17T17:48:27.712Z,29.13
2022-10-17T17:51:00.720Z,28.15
2022-10-17T17:53:27.660Z,29.13
2022-10-17T17:56:19.720Z,28.50
2022-10-17T17:58:47.783Z,28.73
2022-10-17T18:01:32.691Z,27.20
2022-10-17T18:03:59.752Z,27.60
2022-10-17T18:06:27.083Z,26.80
2022-10-17T18:09:03.710Z,26.70
2022-10-17T18:11:36.710Z,26.58
2022-10-17T18:14:07.282Z,27.27
2022-10-17T18:16:42.726Z,28.10
2022-10-17T18:19:11.132Z,27.65
2022-10-17T18:21:44.681Z,29.23
2022-10-17T18:24:11.682Z,28.42
2022-10-17T18:26:38.837Z,27.35
2022-10-17T18:29:18.746Z,29.77
2022-10-17T18:31:52.881Z,31.85
2022-10-17T18:34:20.031Z,30.90
2022-10-17T18:36:53.797Z,32.05
2022-10-17T18:39:27.780Z,32.03
2022-10-17T18:41:55.073Z,34.38
2022-10-17T18:44:22.064Z,32.35
2022-10-17T18:46:58.497Z,31.80
2022-10-17T18:49:28.711Z,33.22
2022-10-17T18:52:02.784Z,32.47
2022-10-17T18:54:29.762Z,32.15
2022-10-17T18:57:02.784Z,31.20
2022-10-17T18:59:30.611Z,31.80
2022-10-17T19:02:07.905Z,31.40
2022-10-17T19:04:38.404Z,30.85
2022-10-17T19:07:12.861Z,28.60
2022-10-17T19:09:43.421Z,30.60
2022-10-17T19:12:15.574Z,29.70
2022-10-17T19:14:50.188Z,31.75
2022-10-17T19:17:17.601Z,32.13
2022-10-17T19:19:51.992Z,33.30
2022-10-17T19:22:19.594Z,33.00
2022-10-17T19:24:54.254Z,30.83
2022-10-17T19:27:21.761Z,32.42
2022-10-17T19:29:55.837Z,33.72
2022-10-17T19:32:23.329Z,31.02
2022-10-17T19:34:56.912Z,32.58
2022-10-17T19:37:24.163Z,31.35
2022-10-17T19:39:57.882Z,29.65
2022-10-17T19:42:25.549Z,33.67
2022-10-17T19:45:02.859Z,32.88
2022-10-17T19:47:37.051Z,32.08
2022-10-17T19:50:04.973Z,31.40
2022-10-17T19:52:38.926Z,32.70
2022-10-17T19:55:06.996Z,30.55
2022-10-17T19:57:36.819Z,32.80
2022-10-17T20:00:10.809Z,32.10
2022-10-17T20:02:44.960Z,32.05
2022-10-17T20:05:19.437Z,30.70
2022-10-17T20:07:54.905Z,31.95
2022-10-17T20:10:22.297Z,33.17
2022-10-17T20:12:49.795Z,32.67
2022-10-17T20:15:23.893Z,33.42
2022-10-17T20:17:57.913Z,30.92
2022-10-17T20:20:31.997Z,32.42
2022-10-17T20:22:59.116Z,31.95
2022-10-17T20:25:32.822Z,32.67
2022-10-17T20:28:00.180Z,33.63
2022-10-17T20:30:33.825Z,35.03
2022-10-17T20:33:03.962Z,33.10
2022-10-17T20:35:37.880Z,35.17
2022-10-17T20:38:04.887Z,35.05
2022-10-17T20:40:38.894Z,33.13
2022-10-17T20:43:13.800Z,31.95
2022-10-17T20:45:51.442Z,31.80
2022-10-17T20:48:25.821Z,31.23
2022-10-17T20:50:59.894Z,31.10
2022-10-17T20:53:42.298Z,32.17
2022-10-17T20:56:22.808Z,32.47
2022-10-17T21:02:14.924Z,30.33
2022-10-17T21:04:52.030Z,32.13
2022-10-17T21:07:21.749Z,31.75
2022-10-17T21:10:00.295Z,32.38
2022-10-17T21:12:53.290Z,31.65
2022-10-17T21:15:31.027Z,30.75
2022-10-17T21:18:00.569Z,30.63
2022-10-17T21:20:34.015Z,30.70
2022-10-17T21:23:08.131Z,31.17
2022-10-17T21:25:46.862Z,33.42
2022-10-17T21:28:14.032Z,32.85
2022-10-17T21:30:41.267Z,32.45
2022-10-17T21:33:15.051Z,31.98
2022-10-17T21:35:42.133Z,33.45
2022-10-17T21:38:15.879Z,32.75
2022-10-17T21:40:46.780Z,31.48
2022-10-17T21:43:20.900Z,32.00
2022-10-17T21:45:54.860Z,31.65
2022-10-17T21:48:31.773Z,29.63
2022-10-17T21:51:01.915Z,30.60
2022-10-17T21:53:35.877Z,30.27
2022-10-17T21:56:21.094Z,31.60
2022-10-17T21:58:48.591Z,29.33
2022-10-17T22:01:30.119Z,31.33
2022-10-17T22:03:59.576Z,31.23
2022-10-17T22:06:41.972Z,29.88
2022-10-17T22:09:19.116Z,30.08
2022-10-17T22:11:54.879Z,29.25
2022-10-17T22:14:29.934Z,26.92
2022-10-17T22:17:04.950Z,27.60
2022-10-17T22:19:43.757Z,28.38
2022-10-17T22:22:12.014Z,26.88
2022-10-17T22:24:45.869Z,27.02
2022-10-17T22:27:13.044Z,26.63
2022-10-17T22:29:40.014Z,27.77
2022-10-17T22:32:17.517Z,25.95
2022-10-17T22:34:48.402Z,25.40
2022-10-17T22:37:33.869Z,26.80
2022-10-17T22:40:02.103Z,27.55
2022-10-17T22:42:35.912Z,26.10
2022-10-17T22:45:03.441Z,25.70
2022-10-17T22:48:02.891Z,25.55
2022-10-17T22:50:30.086Z,25.10
2022-10-17T22:52:57.117Z,25.23
2022-10-17T22:58:19.916Z,24.50
2022-10-17T23:00:57.887Z,24.02
2022-10-17T23:03:25.583Z,23.73
2022-10-17T23:05:58.886Z,22.38
2022-10-17T23:08:25.986Z,23.48
2022-10-17T23:10:59.924Z,25.73
2022-10-17T23:13:26.919Z,23.27
2022-10-17T23:16:01.940Z,24.73
2022-10-17T23:21:02.944Z,23.20
2022-10-17T23:23:29.891Z,23.23
2022-10-17T23:26:12.966Z,23.15
2022-10-17T23:28:42.420Z,22.45
2022-10-17T23:31:21.929Z,23.67
2022-10-17T23:33:49.622Z,22.95
2022-10-17T23:36:18.812Z,23.40
2022-10-17T23:38:56.460Z,23.10
2022-10-17T23:41:31.954Z,24.58
2022-10-17T23:44:02.210Z,26.02
2022-10-17T23:46:31.605Z,24.98
2022-10-17T23:49:07.903Z,25.10
2022-10-17T23:51:35.001Z,24.75
2022-10-17T23:54:10.942Z,24.88
2022-10-17T23:56:38.019Z,24.38
2022-10-17T23:59:05.054Z,24.83
